Time;durP1;ratioP1;P1;durP2;ratioP2;P2;SDS_P1;SDS_P2;PMS_P1;PMS_P2;Temp;Humidity;BMP_temperature;BMP_pressure;BME280_temperature;BME280_humidity;BME280_pressure;Samples;Min_cycle;Max_cycle;Signal;HPM_P1;HPM_P2
2023/07/29 00:01:56;;;;;;;10.50;6.10;;;;;;;18.59;70.72;98665.76;79539;1294;3012041;-65
2023/07/29 00:04:24;;;;;;;10.60;6.50;;;;;;;18.41;70.65;98667.01;78485;1294;3052482;-65
2023/07/29 00:06:50;;;;;;;12.40;5.80;;;;;;;18.21;71.09;98667.70;79563;1297;3015154;-64
2023/07/29 00:09:17;;;;;;;14.80;5.90;;;;;;;18.03;71.44;98670.05;79479;1295;3011568;-64
2023/07/29 00:11:44;;;;;;;11.90;5.20;;;;;;;17.87;72.45;98664.10;78551;1296;3026120;-66
2023/07/29 00:14:11;;;;;;;12.00;5.50;;;;;;;17.76;72.42;98669.80;79527;1294;3013978;-65
2023/07/29 00:16:37;;;;;;;14.80;5.90;;;;;;;17.67;73.00;98666.98;79664;1296;3013426;-66
2023/07/29 00:19:05;;;;;;;16.40;5.80;;;;;;;17.63;72.72;98664.77;78354;1295;3026701;-64
2023/07/29 00:21:32;;;;;;;12.10;5.40;;;;;;;17.56;73.70;98669.73;79566;1297;3013289;-64
2023/07/29 00:23:58;;;;;;;14.80;4.80;;;;;;;17.51;73.48;98667.79;79457;1297;3013185;-65
2023/07/29 00:26:28;;;;;;;12.00;5.10;;;;;;;17.42;73.91;98671.52;78252;1295;3027066;-63
2023/07/29 00:28:56;;;;;;;17.60;4.10;;;;;;;17.43;73.93;98678.52;79410;1295;3013051;-63
2023/07/29 00:31:25;;;;;;;17.40;3.60;;;;;;;18.05;72.01;98673.71;79004;1294;3011659;-65
2023/07/29 00:33:52;;;;;;;12.40;3.60;;;;;;;18.29;70.49;98674.98;79392;1297;3013636;-65
2023/07/29 00:36:19;;;;;;;14.40;3.90;;;;;;;18.18;69.87;98677.35;79470;1295;3011644;-63
2023/07/29 00:38:47;;;;;;;12.70;3.90;;;;;;;18.12;70.04;98682.92;78260;1294;3053065;-63
2023/07/29 00:41:15;;;;;;;8.10;4.10;;;;;;;17.97;70.91;98686.23;79464;1297;3014848;-66
2023/07/29 00:43:42;;;;;;;11.70;4.70;;;;;;;17.92;71.77;98677.80;79508;1298;3011653;-64
2023/07/29 00:46:09;;;;;;;9.40;4.70;;;;;;;17.75;72.42;98680.73;78291;1298;3054888;-64
2023/07/29 00:48:36;;;;;;;11.90;5.50;;;;;;;17.62;73.80;98679.58;79336;1298;3011444;-65
2023/07/29 00:51:03;;;;;;;16.90;6.00;;;;;;;17.45;74.40;98686.01;79387;1294;3012031;-66
2023/07/29 00:53:31;;;;;;;13.20;6.10;;;;;;;17.42;74.12;98677.34;78223;1299;3025748;-63
2023/07/29 00:55:57;;;;;;;10.30;5.40;;;;;;;17.34;74.72;98687.00;79609;1294;3013220;-67
2023/07/29 00:58:24;;;;;;;15.60;5.40;;;;;;;17.84;73.49;98681.55;79215;1294;3013360;-64
2023/07/29 01:00:52;;;;;;;15.80;6.00;;;;;;;18.12;72.58;98682.39;78484;1297;3026465;-62
2023/07/29 01:03:19;;;;;;;16.70;6.70;;;;;;;18.18;71.86;98684.11;79307;1295;3013600;-63
2023/07/29 01:06:07;;;;;;;20.00;8.10;;;;;;;18.09;71.97;98682.52;79579;1294;3011738;-65
2023/07/29 01:08:56;;;;;;;18.50;9.40;;;;;;;17.86;72.37;98681.67;78296;1297;3052215;-63
2023/07/29 01:11:48;;;;;;;28.00;9.40;;;;;;;17.69;72.99;98686.15;78326;1297;3052097;-63
2023/07/29 01:14:21;;;;;;;26.00;10.50;;;;;;;17.55;73.64;98685.54;78244;1297;3068645;-63
2023/07/29 01:16:52;;;;;;;22.50;11.00;;;;;;;17.40;74.20;98685.45;79283;1295;3011869;-66
2023/07/29 01:19:45;;;;;;;29.80;11.40;;;;;;;17.34;74.62;98689.09;78091;1295;3056370;-64
2023/07/29 01:22:13;;;;;;;20.10;9.60;;;;;;;17.31;75.16;98690.83;78345;1295;3048925;-66
2023/07/29 01:24:40;;;;;;;20.60;9.80;;;;;;;17.91;73.85;98691.69;79469;1295;3013425;-64
2023/07/29 01:27:06;;;;;;;28.60;11.10;;;;;;;18.17;71.93;98693.77;79546;1297;3012985;-64
2023/07/29 01:29:34;;;;;;;31.00;13.30;;;;;;;18.09;71.57;98689.48;78175;1298;3028630;-65
2023/07/29 01:32:06;;;;;;;35.10;16.00;;;;;;;17.87;72.23;98692.63;79503;1298;3021058;-63
2023/07/29 01:35:03;;;;;;;35.50;17.20;;;;;;;17.43;73.68;98697.97;78228;1294;3056997;-62
2023/07/29 01:37:32;;;;;;;42.30;18.30;;;;;;;17.39;73.94;98705.95;78211;1298;3049647;-65
2023/07/29 01:40:00;;;;;;;32.30;19.30;;;;;;;17.23;74.47;98707.00;79622;1294;3011440;-62
2023/07/29 01:42:29;;;;;;;38.70;19.00;;;;;;;17.03;75.20;98708.48;78905;1298;3013579;-65
2023/07/29 01:44:56;;;;;;;46.80;19.70;;;;;;;16.94;75.34;98712.19;79493;1298;3018403;-62
2023/07/29 01:47:22;;;;;;;30.00;12.50;;;;;;;16.89;75.76;98716.23;79421;1297;3011469;-64
2023/07/29 01:49:50;;;;;;;24.50;10.50;;;;;;;17.46;74.16;98708.23;78273;1297;3026266;-64
2023/07/29 01:52:17;;;;;;;24.20;11.50;;;;;;;17.76;71.97;98702.95;79526;1294;3012929;-66
2023/07/29 01:54:43;;;;;;;31.10;12.50;;;;;;;17.56;72.57;98715.63;79619;1297;3011719;-65
2023/07/29 01:57:11;;;;;;;31.50;13.10;;;;;;;17.47;72.52;98716.56;78264;1297;3026505;-63
2023/07/29 01:59:37;;;;;;;22.80;11.20;;;;;;;17.31;72.30;98718.41;79475;1298;3020580;-63
2023/07/29 02:02:04;;;;;;;24.70;12.00;;;;;;;17.21;72.36;98718.89;79489;1294;3013369;-65
2023/07/29 02:04:32;;;;;;;23.80;10.80;;;;;;;17.18;72.63;98717.58;78407;1297;3028544;-65
2023/07/29 02:06:59;;;;;;;24.60;11.20;;;;;;;17.10;72.99;98710.05;79629;1297;3020531;-70
2023/07/29 02:09:25;;;;;;;25.40;11.30;;;;;;;17.01;72.84;98717.34;79524;1297;3013298;-67
2023/07/29 02:11:53;;;;;;;24.30;10.10;;;;;;;17.00;72.76;98719.12;78304;1297;3027060;-62
2023/07/29 02:14:20;;;;;;;27.50;11.60;;;;;;;16.94;73.09;98724.21;79551;1298;3013780;-68
2023/07/29 02:16:46;;;;;;;20.20;11.20;;;;;;;16.95;72.99;98714.20;79581;1298;3011912;-65
2023/07/29 02:19:14;;;;;;;24.90;10.80;;;;;;;16.88;73.38;98718.08;78235;1297;3027784;-67
2023/07/29 02:21:41;;;;;;;18.70;8.10;;;;;;;16.93;73.17;98727.87;79492;1294;3012892;-67
2023/07/29 02:24:07;;;;;;;18.90;7.70;;;;;;;17.47;71.81;98717.69;79444;1295;3011844;-65
2023/07/29 02:26:35;;;;;;;16.80;7.70;;;;;;;17.75;70.44;98709.02;78264;1298;3028450;-65
2023/07/29 02:29:02;;;;;;;20.20;9.10;;;;;;;17.70;70.21;98720.00;79610;1297;3013081;-63
2023/07/29 02:31:28;;;;;;;20.10;9.10;;;;;;;17.63;70.43;98721.48;79443;1297;3011372;-64
2023/07/29 02:33:56;;;;;;;22.40;10.10;;;;;;;17.54;70.66;98728.23;78404;1297;3026158;-64
2023/07/29 02:36:23;;;;;;;24.90;10.30;;;;;;;17.39;71.05;98725.83;79645;1297;3014074;-64
2023/07/29 02:38:49;;;;;;;28.10;10.30;;;;;;;17.31;71.59;98725.06;79281;1299;3013729;-65
2023/07/29 02:41:17;;;;;;;24.50;9.70;;;;;;;17.27;71.52;98732.84;78268;1295;3029540;-67
2023/07/29 02:43:47;;;;;;;21.10;9.90;;;;;;;17.15;71.96;98728.73;79606;1297;3013581;-64
2023/07/29 02:46:17;;;;;;;19.10;9.70;;;;;;;17.18;72.13;98733.40;78997;1297;3011997;-64
2023/07/29 02:48:44;;;;;;;20.60;10.20;;;;;;;17.22;72.10;98732.61;79491;1297;3019077;-64
2023/07/29 02:51:10;;;;;;;22.10;9.80;;;;;;;17.20;72.34;98730.57;79343;1299;3011346;-66
2023/07/29 02:53:38;;;;;;;20.10;9.20;;;;;;;17.17;72.47;98736.31;78339;1297;3049292;-65
2023/07/29 02:56:06;;;;;;;14.90;6.40;;;;;;;17.21;72.72;98729.91;79511;1294;3012873;-67
2023/07/29 02:58:32;;;;;;;12.20;6.20;;;;;;;17.79;71.18;98732.01;79639;1295;3011522;-66
2023/07/29 03:01:02;;;;;;;19.90;7.00;;;;;;;18.24;69.24;98733.48;78115;1300;3052635;-65
2023/07/29 03:03:30;;;;;;;23.00;7.30;;;;;;;18.26;68.73;98735.05;79433;1297;3011747;-65
2023/07/29 03:06:02;;;;;;;16.40;6.60;;;;;;;18.13;68.94;98741.36;78352;1297;3026623;-64
2023/07/29 03:08:29;;;;;;;23.50;7.40;;;;;;;18.07;69.33;98741.80;79579;1295;3011891;-65
2023/07/29 03:10:57;;;;;;;23.80;8.30;;;;;;;17.90;69.79;98747.58;78004;1300;3051625;-62
2023/07/29 03:13:24;;;;;;;14.60;6.50;;;;;;;17.87;69.98;98740.59;79458;1295;3013563;-63
2023/07/29 03:15:51;;;;;;;20.40;6.40;;;;;;;17.78;70.37;98750.02;79674;1294;3011622;-64
2023/07/29 03:18:18;;;;;;;12.70;6.30;;;;;;;17.73;70.84;98750.92;78310;1298;3028695;-64
2023/07/29 03:20:45;;;;;;;15.70;6.70;;;;;;;17.68;70.82;98747.96;79242;1300;3013287;-63
2023/07/29 03:23:12;;;;;;;19.70;6.20;;;;;;;17.67;70.83;98746.70;79600;1297;3011585;-64
2023/07/29 03:25:39;;;;;;;20.70;7.20;;;;;;;17.62;70.58;98747.70;78092;1297;3025936;-63
2023/07/29 03:28:06;;;;;;;15.90;6.30;;;;;;;17.56;71.06;98743.93;79525;1297;3012945;-65
2023/07/29 03:30:32;;;;;;;16.20;6.60;;;;;;;17.57;71.11;98748.04;79399;1297;3011898;-63
2023/07/29 03:33:00;;;;;;;15.70;6.90;;;;;;;17.59;70.80;98744.13;78238;1297;3025656;-64
2023/07/29 03:35:27;;;;;;;14.60;5.70;;;;;;;17.59;70.87;98744.42;79499;1297;3013506;-62
2023/07/29 03:37:53;;;;;;;12.90;5.60;;;;;;;17.61;70.47;98738.80;79458;1295;3013314;-65
2023/07/29 03:40:22;;;;;;;11.60;4.80;;;;;;;17.63;70.64;98744.42;78258;1297;3025942;-64
2023/07/29 03:42:49;;;;;;;16.10;5.80;;;;;;;17.69;70.26;98740.14;79420;1297;3013246;-63
2023/07/29 03:45:15;;;;;;;13.40;5.00;;;;;;;17.70;70.45;98746.23;79489;1294;3011901;-66
2023/07/29 03:47:43;;;;;;;14.50;5.00;;;;;;;17.69;70.23;98742.60;78183;1298;3028065;-63
2023/07/29 03:50:10;;;;;;;13.30;4.80;;;;;;;17.75;70.32;98748.16;79676;1297;3012910;-66
2023/07/29 03:52:37;;;;;;;12.60;4.60;;;;;;;17.77;69.75;98746.27;79487;1297;3013408;-67
2023/07/29 03:55:05;;;;;;;13.30;4.70;;;;;;;17.80;69.85;98751.42;78438;1297;3025947;-65
2023/07/29 03:57:32;;;;;;;10.00;4.30;;;;;;;17.82;69.81;98758.61;79458;1295;3016118;-65
2023/07/29 03:59:58;;;;;;;15.10;5.20;;;;;;;17.91;69.49;98756.48;79519;1297;3011948;-64
2023/07/29 04:02:26;;;;;;;13.40;5.10;;;;;;;17.91;69.69;98759.48;78324;1296;3053347;-65
2023/07/29 04:04:52;;;;;;;13.60;5.00;;;;;;;17.93;69.17;98765.11;79541;1295;3019606;-65
2023/07/29 04:07:19;;;;;;;16.20;5.20;;;;;;;17.96;69.38;98768.99;79475;1295;3011568;-63
2023/07/29 04:09:47;;;;;;;15.90;4.80;;;;;;;18.00;69.28;98764.30;78073;1301;3028341;-63
2023/07/29 04:12:14;;;;;;;12.40;4.60;;;;;;;18.03;69.20;98765.57;79374;1295;3013757;-67
2023/07/29 04:14:40;;;;;;;12.10;4.50;;;;;;;18.07;68.92;98764.39;79471;1295;3013209;-66
2023/07/29 04:17:08;;;;;;;10.90;5.10;;;;;;;18.10;68.76;98773.48;78346;1298;3026656;-65
2023/07/29 04:19:35;;;;;;;13.50;4.90;;;;;;;18.14;68.39;98781.14;79521;1298;3013638;-64
2023/07/29 04:22:01;;;;;;;16.20;5.40;;;;;;;18.19;68.01;98774.92;79537;1298;3011332;-66
2023/07/29 04:24:29;;;;;;;11.30;4.50;;;;;;;18.23;67.44;98776.30;78337;1298;3027392;-63
2023/07/29 04:26:55;;;;;;;16.00;5.90;;;;;;;18.28;67.82;98777.55;79507;1297;3013410;-64
2023/07/29 04:29:22;;;;;;;15.00;5.60;;;;;;;18.33;67.39;98777.18;79558;1297;3013060;-63
2023/07/29 04:31:50;;;;;;;13.70;5.30;;;;;;;18.41;66.84;98780.83;78471;1298;3026104;-64
2023/07/29 04:34:18;;;;;;;11.10;6.00;;;;;;;18.42;66.93;98776.77;79374;1294;3013337;-66
2023/07/29 04:36:45;;;;;;;9.50;5.30;;;;;;;18.48;66.53;98776.73;79543;1295;3011647;-66
2023/07/29 04:39:13;;;;;;;13.60;6.00;;;;;;;18.52;66.06;98782.66;78322;1299;3049640;-66
2023/07/29 04:41:39;;;;;;;12.40;5.40;;;;;;;18.54;65.71;98782.98;79445;1295;3013545;-64
2023/07/29 04:44:06;;;;;;;11.60;5.70;;;;;;;18.62;65.59;98787.49;79533;1295;3012237;-64
2023/07/29 04:46:35;;;;;;;15.00;5.90;;;;;;;18.73;65.77;98783.96;78309;1300;3025313;-64
2023/07/29 04:49:02;;;;;;;16.60;6.00;;;;;;;18.81;65.70;98779.48;79556;1297;3015034;-65
2023/07/29 04:51:29;;;;;;;13.10;5.60;;;;;;;18.83;65.19;98783.92;79442;1294;3011895;-64
2023/07/29 04:53:57;;;;;;;15.90;5.40;;;;;;;18.89;65.40;98789.69;78389;1297;3049091;-62
2023/07/29 04:56:25;;;;;;;12.90;5.30;;;;;;;18.94;64.81;98792.52;79595;1295;3014193;-65
2023/07/29 04:58:52;;;;;;;10.80;4.30;;;;;;;18.99;64.43;98794.49;79294;1298;3012185;-65
2023/07/29 05:01:20;;;;;;;14.40;5.90;;;;;;;19.00;64.36;98797.73;78352;1297;3051924;-65
2023/07/29 05:03:46;;;;;;;9.00;4.00;;;;;;;19.05;64.17;98800.49;79515;1297;3013403;-63
2023/07/29 05:06:13;;;;;;;11.90;4.80;;;;;;;19.12;64.12;98801.58;79261;1293;3012867;-65
2023/07/29 05:08:41;;;;;;;14.60;4.50;;;;;;;19.15;63.53;98802.54;78453;1295;3026281;-65
2023/07/29 05:11:07;;;;;;;11.50;4.50;;;;;;;19.20;63.92;98800.17;79383;1300;3020792;-64
2023/07/29 05:13:34;;;;;;;14.90;5.00;;;;;;;19.24;63.73;98800.84;79294;1300;3011392;-64
2023/07/29 05:16:02;;;;;;;13.00;5.20;;;;;;;19.32;63.95;98801.56;78140;1301;3028735;-65
2023/07/29 05:18:29;;;;;;;13.90;5.00;;;;;;;19.38;63.52;98807.27;79400;1299;3013017;-63
2023/07/29 05:20:55;;;;;;;15.50;5.00;;;;;;;19.40;63.51;98809.72;79368;1294;3011701;-65
2023/07/29 05:23:24;;;;;;;11.60;5.30;;;;;;;19.43;63.51;98809.29;78197;1296;3026651;-64
2023/07/29 05:25:51;;;;;;;12.10;4.90;;;;;;;19.51;63.58;98804.65;79582;1295;3013416;-67
2023/07/29 05:28:17;;;;;;;11.90;4.80;;;;;;;19.58;63.19;98800.37;79502;1301;3011717;-64
2023/07/29 05:30:46;;;;;;;18.30;5.30;;;;;;;19.67;63.19;98805.77;78337;1300;3052934;-65
2023/07/29 05:33:12;;;;;;;11.30;5.10;;;;;;;19.77;63.18;98808.44;79557;1298;3018284;-65
2023/07/29 05:35:39;;;;;;;15.90;5.30;;;;;;;19.83;63.10;98811.25;77533;1295;3012899;-64
2023/07/29 05:38:08;;;;;;;13.90;5.10;;;;;;;19.83;62.70;98817.92;78427;1294;3050335;-66
2023/07/29 05:40:35;;;;;;;12.60;5.70;;;;;;;19.83;61.88;98816.69;79632;1295;3013266;-65
2023/07/29 05:43:03;;;;;;;13.90;5.90;;;;;;;19.88;61.93;98822.15;79405;1299;3013270;-66
2023/07/29 05:45:31;;;;;;;15.60;6.10;;;;;;;20.05;62.15;98819.26;78345;1297;3052627;-65
2023/07/29 05:47:57;;;;;;;19.20;6.10;;;;;;;20.13;61.58;98822.80;79457;1305;3013120;-65
2023/07/29 05:50:24;;;;;;;14.50;6.00;;;;;;;20.17;61.15;98822.91;79437;1299;3011783;-64
2023/07/29 05:52:52;;;;;;;15.90;6.70;;;;;;;20.15;60.71;98821.27;78167;1300;3027230;-65
2023/07/29 05:55:18;;;;;;;16.30;6.20;;;;;;;20.20;61.26;98824.48;79534;1299;3013317;-63
2023/07/29 05:57:45;;;;;;;14.00;6.40;;;;;;;20.26;60.90;98823.50;79384;1299;3011738;-64
2023/07/29 06:00:13;;;;;;;12.10;6.10;;;;;;;20.33;60.65;98826.14;78192;1298;3025323;-66
2023/07/29 06:02:40;;;;;;;14.30;5.70;;;;;;;20.38;60.38;98828.59;79565;1299;3012743;-65
2023/07/29 06:05:08;;;;;;;11.10;5.70;;;;;;;20.49;60.27;98819.42;79369;1298;3013591;-66
2023/07/29 06:07:36;;;;;;;11.30;5.90;;;;;;;20.53;59.52;98826.60;78318;1295;3050865;-69
2023/07/29 06:10:02;;;;;;;10.60;5.70;;;;;;;20.57;58.40;98821.11;79607;1298;3013749;-65
2023/07/29 06:12:29;;;;;;;15.00;6.30;;;;;;;20.57;57.83;98823.30;79833;1298;3011524;-64
2023/07/29 06:14:57;;;;;;;17.40;7.10;;;;;;;20.54;57.82;98834.08;78226;1302;3026885;-67
2023/07/29 06:17:24;;;;;;;13.60;6.60;;;;;;;20.62;57.99;98823.73;79489;1300;3012816;-65
2023/07/29 06:19:50;;;;;;;15.40;6.30;;;;;;;20.72;58.33;98829.09;79536;1295;3011668;-64
2023/07/29 06:22:18;;;;;;;16.90;6.60;;;;;;;20.77;57.64;98827.13;78427;1297;3026951;-65
2023/07/29 06:24:44;;;;;;;20.30;6.80;;;;;;;20.91;58.29;98824.98;79430;1297;3011533;-67
2023/07/29 06:27:11;;;;;;;19.00;7.10;;;;;;;21.00;57.79;98824.34;79484;1307;3013280;-64
2023/07/29 06:29:39;;;;;;;18.10;7.10;;;;;;;21.04;55.52;98828.89;78228;1297;3027256;-64
2023/07/29 06:32:06;;;;;;;15.90;7.80;;;;;;;21.11;55.37;98834.74;79504;1299;3013325;-66
2023/07/29 06:34:33;;;;;;;18.40;8.40;;;;;;;21.16;53.86;98833.16;79473;1298;3013076;-65
2023/07/29 06:37:00;;;;;;;22.10;9.20;;;;;;;21.16;53.03;98835.48;78440;1299;3029801;-65
2023/07/29 06:39:27;;;;;;;25.20;11.30;;;;;;;21.18;53.58;98834.21;79707;1297;3013678;-64
2023/07/29 06:41:53;;;;;;;25.40;12.20;;;;;;;21.29;53.65;98827.25;79524;1298;3011841;-64
2023/07/29 06:44:21;;;;;;;30.10;14.20;;;;;;;21.39;54.25;98826.27;78357;1297;3026210;-64
2023/07/29 06:46:48;;;;;;;26.20;11.70;;;;;;;21.45;52.36;98829.11;79716;1295;3012914;-67
2023/07/29 06:49:15;;;;;;;31.90;12.80;;;;;;;21.46;52.56;98833.85;79667;1294;3012976;-65
2023/07/29 06:51:42;;;;;;;33.70;12.50;;;;;;;21.48;52.05;98831.33;78437;1297;3026460;-66
2023/07/29 06:54:09;;;;;;;33.30;11.80;;;;;;;21.57;51.38;98836.13;79608;1299;3012846;-65
2023/07/29 06:56:35;;;;;;;28.70;12.00;;;;;;;21.54;50.63;98836.80;79576;1298;3012977;-65
2023/07/29 07:00:10;;;;;;;29.50;12.90;;;;;;;21.69;50.43;98837.13;80181;1299;3012996;-65
2023/07/29 07:02:37;;;;;;;28.00;12.10;;;;;;;21.72;50.30;98841.38;79264;1302;3013623;-63
2023/07/29 07:05:04;;;;;;;27.60;11.60;;;;;;;21.76;50.00;98838.23;79194;1304;3012760;-65
2023/07/29 07:07:32;;;;;;;23.10;10.60;;;;;;;21.76;50.04;98840.58;78144;1304;3026503;-65
2023/07/29 07:09:59;;;;;;;24.60;8.70;;;;;;;21.87;49.02;98837.23;79254;1300;3013317;-65
2023/07/29 07:12:26;;;;;;;23.60;10.50;;;;;;;21.81;48.40;98839.05;77505;1304;3013592;-64
2023/07/29 07:14:54;;;;;;;16.00;6.70;;;;;;;21.95;49.40;98840.43;78088;1301;3025829;-64
2023/07/29 07:17:20;;;;;;;19.20;6.30;;;;;;;21.98;49.60;98837.23;79381;1299;3013081;-64
2023/07/29 07:19:47;;;;;;;13.90;5.00;;;;;;;22.12;49.89;98841.66;79421;1300;3012071;-64
2023/07/29 07:22:15;;;;;;;14.30;6.40;;;;;;;22.23;49.88;98841.21;77998;1297;3028270;-64
2023/07/29 07:24:42;;;;;;;15.60;4.60;;;;;;;22.26;50.07;98839.63;79498;1295;3013163;-64
2023/07/29 07:27:08;;;;;;;10.30;4.20;;;;;;;22.29;50.13;98837.64;79285;1297;3011869;-63
2023/07/29 07:29:36;;;;;;;8.90;4.40;;;;;;;22.34;49.96;98844.15;78220;1301;3049790;-66
2023/07/29 07:32:03;;;;;;;17.90;5.10;;;;;;;22.50;50.23;98839.89;79314;1301;3014862;-66
2023/07/29 07:34:30;;;;;;;10.10;4.10;;;;;;;22.61;50.03;98843.79;79388;1301;3011737;-66
2023/07/29 07:36:58;;;;;;;11.50;4.00;;;;;;;22.65;49.95;98840.70;78326;1297;3027000;-65
2023/07/29 07:39:24;;;;;;;7.20;3.20;;;;;;;22.79;50.21;98842.20;79484;1301;3012779;-69
2023/07/29 07:41:50;;;;;;;6.50;2.80;;;;;;;22.86;51.21;98845.20;79670;1295;3011753;-69
2023/07/29 07:44:19;;;;;;;6.90;2.50;;;;;;;22.93;50.82;98843.48;78302;1299;3026347;-65
2023/07/29 07:46:46;;;;;;;3.70;2.00;;;;;;;22.93;50.87;98839.77;79501;1299;3011918;-66
2023/07/29 07:49:13;;;;;;;5.00;2.20;;;;;;;22.89;50.55;98838.65;79384;1295;3011884;-65
2023/07/29 07:51:43;;;;;;;6.30;2.10;;;;;;;22.85;50.27;98848.11;78243;1295;3051035;-65
2023/07/29 07:54:10;;;;;;;3.10;1.50;;;;;;;22.85;50.27;98841.65;79503;1298;3011811;-64
2023/07/29 07:56:36;;;;;;;6.60;1.90;;;;;;;22.93;50.38;98841.41;79236;1297;3012060;-65
2023/07/29 07:59:04;;;;;;;4.10;1.60;;;;;;;23.00;50.15;98839.98;78153;1300;3049437;-65
2023/07/29 08:01:38;;;;;;;2.80;1.50;;;;;;;23.04;49.89;98838.08;79470;1301;3018276;-66
2023/07/29 08:04:06;;;;;;;6.10;1.80;;;;;;;23.05;50.08;98842.41;78326;1301;3053407;-66
2023/07/29 08:06:33;;;;;;;2.10;1.60;;;;;;;23.03;49.85;98834.64;79392;1295;3013455;-68
2023/07/29 08:08:59;;;;;;;5.80;1.50;;;;;;;23.07;49.87;98826.69;79456;1301;3011719;-67
2023/07/29 08:11:27;;;;;;;6.20;1.70;;;;;;;23.12;49.74;98828.16;78018;1298;3026564;-66
2023/07/29 08:13:53;;;;;;;2.70;1.10;;;;;;;23.16;49.69;98822.53;79414;1298;3013626;-67
2023/07/29 08:16:20;;;;;;;5.00;1.70;;;;;;;23.26;49.90;98818.30;79384;1299;3013013;-67
2023/07/29 08:18:48;;;;;;;3.60;1.70;;;;;;;23.46;49.29;98825.80;78137;1301;3027922;-66
2023/07/29 08:21:14;;;;;;;2.40;1.10;;;;;;;23.54;47.72;98823.59;79410;1301;3019121;-66
2023/07/29 08:23:41;;;;;;;6.50;1.80;;;;;;;23.43;47.60;98822.25;79333;1301;3011182;-63
2023/07/29 08:26:09;;;;;;;5.80;2.00;;;;;;;23.48;47.38;98813.35;78033;1297;3026321;-65
2023/07/29 08:28:37;;;;;;;5.40;1.70;;;;;;;23.46;46.94;98819.20;79223;1295;3013190;-65
2023/07/29 08:31:04;;;;;;;6.30;1.40;;;;;;;23.56;47.62;98817.79;79477;1295;3011803;-64
2023/07/29 08:33:35;;;;;;;3.40;1.70;;;;;;;23.60;46.75;98814.27;78278;1301;3054268;-66
2023/07/29 08:36:02;;;;;;;4.00;1.80;;;;;;;23.67;44.17;98806.58;80074;1295;3011665;-64
2023/07/29 08:38:31;;;;;;;2.90;1.70;;;;;;;23.83;44.20;98806.20;81405;1295;3011356;-66
2023/07/29 08:41:14;;;;;;;6.80;1.90;;;;;;;23.97;43.13;98819.96;81984;1295;3012821;-66
2023/07/29 08:44:00;;;;;;;4.20;1.60;;;;;;;23.94;42.78;98815.46;78926;1301;3047996;-70
2023/07/29 08:46:28;;;;;;;6.00;1.70;;;;;;;23.90;42.89;98813.67;78060;1295;3054031;-65
2023/07/29 08:48:55;;;;;;;3.20;1.40;;;;;;;24.07;43.35;98819.77;79487;1301;3012909;-65
2023/07/29 08:51:21;;;;;;;4.80;1.40;;;;;;;24.16;43.15;98818.50;79381;1300;3011627;-65
2023/07/29 08:53:49;;;;;;;5.50;1.40;;;;;;;24.21;42.75;98819.77;78192;1298;3027381;-64
2023/07/29 08:56:16;;;;;;;2.10;1.20;;;;;;;24.22;42.57;98822.34;79435;1295;3013715;-64
2023/07/29 08:58:43;;;;;;;6.40;1.90;;;;;;;24.33;42.08;98813.45;79281;1296;3011877;-66
2023/07/29 09:01:10;;;;;;;4.10;2.20;;;;;;;24.37;42.86;98811.33;78186;1300;3027345;-67
2023/07/29 09:03:37;;;;;;;3.50;1.50;;;;;;;24.50;43.18;98812.33;79350;1298;3019164;-68
2023/07/29 09:06:04;;;;;;;2.80;2.00;;;;;;;24.45;42.73;98814.25;79446;1300;3011395;-65
2023/07/29 09:08:32;;;;;;;1.90;1.20;;;;;;;24.36;42.85;98809.95;78097;1303;3026919;-65
2023/07/29 09:10:59;;;;;;;2.20;1.60;;;;;;;24.31;43.33;98807.77;79222;1296;3012898;-63
2023/07/29 09:13:25;;;;;;;3.10;1.80;;;;;;;24.22;43.66;98806.39;79368;1295;3011640;-65
2023/07/29 09:15:56;;;;;;;2.00;1.60;;;;;;;24.28;44.19;98807.84;78268;1298;3028085;-65
2023/07/29 09:18:22;;;;;;;3.90;1.90;;;;;;;24.44;44.64;98805.61;79444;1296;3013171;-65
2023/07/29 09:20:50;;;;;;;2.70;1.90;;;;;;;24.51;44.99;98808.95;79476;1300;3011811;-66
2023/07/29 09:23:18;;;;;;;1.50;1.30;;;;;;;24.62;45.09;98803.20;78160;1295;3068923;-65
2023/07/29 09:25:46;;;;;;;4.20;1.90;;;;;;;24.72;44.92;98798.65;79496;1300;3013520;-66
2023/07/29 09:28:14;;;;;;;4.20;1.50;;;;;;;24.68;45.15;98797.48;79375;1297;3011891;-66
2023/07/29 09:30:44;;;;;;;2.90;1.60;;;;;;;24.77;45.63;98804.01;78239;1298;3055211;-67
2023/07/29 09:33:10;;;;;;;5.20;1.50;;;;;;;24.79;45.07;98801.77;79474;1297;3013263;-64
2023/07/29 09:35:37;;;;;;;6.50;2.00;;;;;;;24.71;45.12;98798.27;79497;1298;3011713;-66
2023/07/29 09:38:06;;;;;;;4.20;1.80;;;;;;;24.45;44.73;98814.04;77991;1298;3068594;-66
2023/07/29 09:40:39;;;;;;;4.70;2.00;;;;;;;24.36;44.63;98805.70;79404;1298;3011873;-64
2023/07/29 09:43:09;;;;;;;2.40;1.50;;;;;;;24.44;44.83;98806.06;78047;1300;3049571;-65
2023/07/29 09:45:36;;;;;;;2.10;1.50;;;;;;;24.44;43.14;98816.88;79758;1295;3011652;-66
2023/07/29 09:48:10;;;;;;;2.40;1.50;;;;;;;24.50;43.12;98801.48;78955;1299;3013013;-64
2023/07/29 09:50:36;;;;;;;2.80;1.50;;;;;;;24.60;43.52;98798.30;79555;1295;3013214;-66
2023/07/29 09:53:04;;;;;;;6.60;2.40;;;;;;;24.54;44.01;98803.89;78350;1298;3052904;-66
2023/07/29 09:55:32;;;;;;;4.00;3.10;;;;;;;24.60;44.95;98790.11;79520;1301;3013653;-67
2023/07/29 09:58:02;;;;;;;5.40;2.40;;;;;;;24.77;44.87;98788.96;79583;1295;3013933;-68
2023/07/29 10:00:30;;;;;;;2.20;1.50;;;;;;;24.85;43.51;98796.50;78362;1295;3050364;-66
2023/07/29 10:02:57;;;;;;;7.40;1.80;;;;;;;24.87;43.28;98804.36;79552;1295;3013118;-65
2023/07/29 10:05:25;;;;;;;2.40;1.90;;;;;;;24.92;43.40;98799.17;79670;1295;3011558;-66
2023/07/29 10:07:54;;;;;;;4.00;2.00;;;;;;;25.01;43.04;98800.20;78159;1298;3052786;-66
2023/07/29 10:10:20;;;;;;;4.30;1.90;;;;;;;24.97;42.65;98794.55;79556;1294;3013299;-67
2023/07/29 10:12:47;;;;;;;2.70;1.80;;;;;;;25.03;42.88;98797.00;79498;1298;3011697;-66
2023/07/29 10:15:15;;;;;;;4.10;2.30;;;;;;;24.98;42.75;98800.25;78177;1298;3027300;-66
2023/07/29 10:17:41;;;;;;;19.10;2.60;;;;;;;24.92;42.83;98800.61;79540;1294;3013551;-63
2023/07/29 10:20:09;;;;;;;4.50;2.40;;;;;;;24.98;43.11;98799.30;79604;1297;3011658;-65
2023/07/29 10:22:37;;;;;;;4.00;2.10;;;;;;;24.99;42.68;98800.71;78360;1298;3052336;-65
2023/07/29 10:25:18;;;;;;;4.30;2.30;;;;;;;25.15;42.49;98799.10;79530;1295;3013071;-65
2023/07/29 10:28:04;;;;;;;5.60;1.90;;;;;;;25.05;42.49;98802.43;78253;1298;3056251;-66
2023/07/29 10:30:32;;;;;;;5.00;2.40;;;;;;;25.07;42.94;98794.29;78484;1298;3049671;-65
2023/07/29 10:33:04;;;;;;;4.90;2.40;;;;;;;25.18;43.53;98793.60;79508;1295;3016141;-66
2023/07/29 10:35:33;;;;;;;5.10;2.30;;;;;;;25.38;43.40;98787.83;78538;1298;3052280;-66
2023/07/29 10:38:01;;;;;;;4.10;2.00;;;;;;;25.53;43.72;98789.39;79712;1298;3013784;-66
2023/07/29 10:40:45;;;;;;;2.80;2.00;;;;;;;25.66;43.01;98789.81;79146;1296;3011744;-66
2023/07/29 10:43:14;;;;;;;4.50;1.80;;;;;;;25.58;43.36;98795.89;78428;1298;3050856;-65
2023/07/29 10:45:41;;;;;;;4.40;1.90;;;;;;;25.50;43.31;98784.56;79590;1294;3013105;-68
2023/07/29 10:48:12;;;;;;;4.80;1.80;;;;;;;25.62;43.86;98783.03;79744;1298;3011536;-65
2023/07/29 10:50:39;;;;;;;3.80;2.30;;;;;;;25.65;44.06;98783.94;78398;1298;3050025;-67
2023/07/29 10:53:06;;;;;;;3.90;2.10;;;;;;;25.74;43.89;98787.61;79648;1298;3013268;-66
2023/07/29 10:55:34;;;;;;;4.20;2.00;;;;;;;25.83;44.04;98787.27;79630;1297;3011809;-65
2023/07/29 10:58:13;;;;;;;3.70;2.20;;;;;;;25.86;43.59;98784.52;78476;1295;3050436;-66
2023/07/29 11:00:42;;;;;;;4.70;1.90;;;;;;;25.74;44.06;98783.27;78416;1296;3055853;-65
2023/07/29 11:03:09;;;;;;;3.60;1.90;;;;;;;25.83;45.00;98777.84;79715;1294;3013479;-65
2023/07/29 11:05:43;;;;;;;4.20;1.70;;;;;;;25.85;44.19;98781.96;79590;1298;3011691;-67
2023/07/29 11:08:22;;;;;;;2.60;2.20;;;;;;;26.19;44.10;98779.86;78386;1298;3052494;-67
2023/07/29 11:11:06;;;;;;;9.00;2.80;;;;;;;26.43;43.36;98773.04;78496;1294;3054227;-65
2023/07/29 11:13:36;;;;;;;6.60;3.80;;;;;;;26.59;42.97;98770.33;78455;1298;3068585;-65
2023/07/29 11:16:03;;;;;;;3.40;2.00;;;;;;;26.37;42.64;98776.75;79710;1295;3011871;-66
2023/07/29 11:18:36;;;;;;;4.50;2.60;;;;;;;26.15;43.17;98771.47;79141;1295;3011723;-64